Tropical Cyclones
[Index]
Main Index Home Page Stock Weather Photos Extreme Storms Discussion Storm News and Storm Chasing Reports Tropical Cyclones / Hurricanes / Typhoons Weather Data and Links Wild Fires / Bushfires Weather Observation Techniques Weather Picture Catalogue Tornado Pictures and Reports Stock Video Footage and DVDs for sale
Season 2011-2012 Tropical Cyclone JASMINE Track Map
Season 2011-2012 Summaries (Operational Data): [AU] [SIO] [SPAC] [SH]
<<- Previous TC | 2011-2012 Season | Next TC ->>

click for intensity scale information  Lat/long Grid: Show Hide

 Date Labels: Show Hide

Operational Tropical Cyclone Data : JTWC Advisories

Name: JASMINE
Number: 1210

31 Jan 2012 12:00 UTC to 17 Feb 2012 06:00 UTC

    date/time    lat    long     hPa   cat  kts
2012-01-31 12   16.1   140.4    1010         15          
2012-01-31 18   15.9   140.4    1010         15          
2012-02-01 00   15.6   140.6    1010         15          
2012-02-01 06   15.4   140.8    1005         15          
2012-02-01 12   15.1   141.1    1000         20          
2012-02-01 18   14.9   141.7     994         25          
2012-02-02 00   14.9   142.5     994         25          
2012-02-02 06   15.0   143.5     994         25          
2012-02-02 12   15.1   144.5     994         25          
2012-02-02 18   15.4   145.8     993         25          
2012-02-03 00   15.9   147.3     993         25          
2012-02-03 06   16.4   148.3     993         25          
2012-02-03 12   16.7   149.0     994         30          
2012-02-03 18   17.0   149.5     993         30          
2012-02-04 00   17.2   149.9     996    1    35          
2012-02-04 06   17.3   150.2     993    1    40          
2012-02-04 12   17.1   150.7     989    1    45          
2012-02-04 18   17.0   151.7     989    1    45          
2012-02-05 00   17.1   152.8     989    1    45          
2012-02-05 06   17.2   153.9     989    1    45          
2012-02-05 12   17.2   155.0     985    2    50          
2012-02-05 18   17.0   156.3     985    2    50          
2012-02-06 00   17.0   157.5     982    2    55          
2012-02-06 06   17.1   158.9     978    2    60          
2012-02-06 12   17.2   160.3     974    3    65          
2012-02-06 18   17.5   161.7     967    3    75          
2012-02-07 00   18.1   163.0     956    4    90          
2012-02-07 06   18.7   164.6     948    4   100          
2012-02-07 12   18.9   165.8     944    4   105          
2012-02-07 18   19.4   167.2     941    5   110          
2012-02-08 00   19.8   168.4     941    5   110          
2012-02-08 06   20.6   169.4     937    5   115          
2012-02-08 12   21.2   170.1     937    5   115          
2012-02-08 18   21.8   170.7     937    5   115          
2012-02-09 00   22.4   170.9     941    5   110          
2012-02-09 06   23.3   171.1     944    4   105          
2012-02-09 12   23.9   171.4     952    4    95          
2012-02-09 18   24.6   171.8     956    4    90          
2012-02-10 00   25.2   172.2     963    3    80          
2012-02-10 06   25.7   172.8     967    3    75          
2012-02-10 12   26.0   173.6     967    3    75          
2012-02-10 18   26.2   174.4     967    3    75          
2012-02-11 00   26.4   175.5     967    3    75          
2012-02-11 06   26.2   176.4     967    3    75          
2012-02-11 12   26.0   177.5     974    3    65          
2012-02-11 12   26.0   177.5     974    3    65          
2012-02-11 18   25.9   178.5     989    1    45          
2012-02-12 00   25.5   179.4     989    1    45          
2012-02-12 06   24.5   179.4W    996    1    35          
2012-02-12 12   23.9   178.3W    996    1    35          
2012-02-12 18   23.5   177.6W    996    1    35          
2012-02-13 00   22.9   177.0W    996    1    35          
2012-02-13 06   22.4   176.6W    996    1    35          
2012-02-13 12   21.8   176.3W    996    1    35          
2012-02-13 18   21.2   176.0W    996    1    35          
2012-02-14 00   21.0   176.0W    996    1    35          
2012-02-14 06   21.2   175.7W    996    1    35          
2012-02-14 12   21.2   176.2W    996    1    35          
2012-02-14 18   21.3   176.3W    996    1    35          
2012-02-15 00   21.4   176.7W    996    1    35          
2012-02-15 06   21.6   177.1W    996    1    35          
2012-02-15 12   22.0   177.4W    996    1    35          
2012-02-15 18   22.7   177.4W    996    1    35          
2012-02-16 00   23.0   177.0W    996    1    35          
2012-02-16 06   23.6   176.5W    996    1    35          
2012-02-16 12   24.2   176.0W   1000         30          
2012-02-16 18   24.0   176.0W   1007         25          
2012-02-16 23   25.4   175.3W                            
2012-02-17 00   25.0   175.0W   1008         25          
2012-02-17 06   25.0   174.0W   1008         25          
Winds are 10-min average.

Tropical cyclone tracks developed by Michael Bath using operational warnings and advisories and Google Maps.


[Australian Severe Weather index] [Copyright Notice] [Email Contacts] [Search This Site] [Privacy Policy]
Document: tropical_cyclone_jasmine.htm Updated: 2 May 2017